Time;durP1;ratioP1;P1;durP2;ratioP2;P2;SDS_P1;SDS_P2;PMS_P1;PMS_P2;Temp;Humidity;BMP_temperature;BMP_pressure;BME280_temperature;BME280_humidity;BME280_pressure;Samples;Min_cycle;Max_cycle;Signal;HPM_P1;HPM_P2
2021/11/05 00:01:16;;;;;;;17.40;11.85;;;;;;;18.29;68.07;101934.80;1701648;84;21007;-62
2021/11/05 00:03:43;;;;;;;17.25;11.70;;;;;;;18.31;68.07;101943.51;1701286;82;21083;-57
2021/11/05 00:06:10;;;;;;;19.80;12.18;;;;;;;18.31;67.97;101935.60;1700552;82;21499;-58
2021/11/05 00:08:36;;;;;;;22.27;12.80;;;;;;;18.30;67.96;101933.89;1698198;82;21639;-57
2021/11/05 00:11:03;;;;;;;21.95;12.58;;;;;;;18.31;67.97;101939.11;1698380;82;21515;-60
2021/11/05 00:13:30;;;;;;;18.32;10.75;;;;;;;18.32;68.00;101934.70;1698212;82;21630;-56
2021/11/05 00:15:56;;;;;;;23.75;12.10;;;;;;;18.31;67.91;101937.78;1695277;82;21054;-56
2021/11/05 00:18:23;;;;;;;19.92;11.85;;;;;;;18.32;67.87;101935.53;1698765;84;20987;-59
2021/11/05 00:20:49;;;;;;;22.70;12.80;;;;;;;18.32;67.79;101929.44;1691712;82;21039;-57
2021/11/05 00:23:16;;;;;;;23.20;13.43;;;;;;;18.31;67.77;101931.20;1698278;82;21083;-56
2021/11/05 00:25:44;;;;;;;20.88;11.38;;;;;;;18.30;67.73;101930.78;1700302;82;21090;-64
2021/11/05 00:28:11;;;;;;;20.25;12.05;;;;;;;18.29;67.75;101932.16;1701280;82;20975;-57
2021/11/05 00:30:38;;;;;;;21.52;11.55;;;;;;;18.27;67.86;101931.35;1700174;82;21034;-60
2021/11/05 00:33:04;;;;;;;17.10;11.45;;;;;;;18.26;67.88;101931.80;1698828;82;21022;-56
2021/11/05 00:35:31;;;;;;;19.32;11.10;;;;;;;18.25;67.87;101926.15;1703505;82;21085;-59
2021/11/05 00:37:58;;;;;;;19.10;11.43;;;;;;;18.25;67.84;101922.64;1697099;84;21003;-58
2021/11/05 00:40:29;;;;;;;17.02;10.95;;;;;;;18.24;67.88;101918.27;1703191;82;21011;-59
2021/11/05 00:42:56;;;;;;;17.40;10.85;;;;;;;18.23;67.95;101917.44;1700868;82;20996;-56
2021/11/05 00:45:22;;;;;;;28.52;11.63;;;;;;;18.23;67.98;101928.42;1698245;82;21503;-63
2021/11/05 00:47:49;;;;;;;24.07;11.55;;;;;;;18.22;67.96;101926.23;1698514;82;21550;-55
2021/11/05 00:50:15;;;;;;;21.10;12.37;;;;;;;18.21;67.94;101923.22;1698606;82;21595;-56
2021/11/05 00:52:42;;;;;;;17.98;11.08;;;;;;;18.21;67.88;101922.34;1698180;82;21471;-57
2021/11/05 00:55:09;;;;;;;22.65;12.37;;;;;;;18.20;67.88;101929.83;1699397;82;21052;-55
2021/11/05 00:57:36;;;;;;;19.37;9.95;;;;;;;18.18;67.92;101919.80;1701221;82;21082;-58
2021/11/05 01:00:07;;;;;;;19.32;11.20;;;;;;;18.18;67.96;101923.76;1701250;82;21078;-59
2021/11/05 01:02:36;;;;;;;17.27;11.43;;;;;;;18.16;68.04;101913.73;1699927;82;21098;-60
2021/11/05 01:05:03;;;;;;;17.32;10.68;;;;;;;18.18;68.06;101914.53;1699217;82;21023;-60
2021/11/05 01:07:30;;;;;;;19.87;11.12;;;;;;;18.18;68.10;101916.72;1700199;84;21105;-63
2021/11/05 01:09:56;;;;;;;19.02;11.83;;;;;;;18.19;67.97;101916.27;1696025;84;21070;-56
2021/11/05 01:12:23;;;;;;;14.50;10.40;;;;;;;18.20;67.99;101908.75;1703761;82;21007;-57
2021/11/05 01:14:50;;;;;;;15.90;10.98;;;;;;;18.21;67.94;101914.45;1699626;82;21043;-59
2021/11/05 01:17:17;;;;;;;20.15;12.00;;;;;;;18.21;67.92;101918.39;1685831;82;21074;-60
2021/11/05 01:19:44;;;;;;;23.75;12.47;;;;;;;18.22;67.87;101918.78;1696845;84;21039;-55
2021/11/05 01:22:10;;;;;;;19.23;12.20;;;;;;;18.22;67.82;101914.83;1703436;82;21049;-55
2021/11/05 01:24:37;;;;;;;20.62;10.85;;;;;;;18.21;67.84;101908.73;1699716;82;21011;-61
2021/11/05 01:27:05;;;;;;;23.07;10.90;;;;;;;18.22;67.86;101913.52;1698096;82;21087;-61
2021/11/05 01:29:31;;;;;;;20.15;10.75;;;;;;;18.23;67.91;101909.98;1698338;82;21460;-55
2021/11/05 01:31:59;;;;;;;20.23;10.58;;;;;;;18.22;67.85;101906.92;1698271;82;21535;-55
2021/11/05 01:34:26;;;;;;;15.03;11.05;;;;;;;18.23;67.81;101911.30;1698479;82;21003;-60
2021/11/05 01:36:52;;;;;;;21.07;12.95;;;;;;;18.22;67.82;101912.20;1699839;82;21515;-58
2021/11/05 01:39:19;;;;;;;17.05;10.95;;;;;;;18.21;67.87;101907.86;1701025;82;21051;-59
2021/11/05 01:41:45;;;;;;;19.00;11.05;;;;;;;18.21;67.88;101907.86;1700694;82;21045;-63
2021/11/05 01:44:12;;;;;;;26.23;12.60;;;;;;;18.21;67.79;101907.86;1697033;84;21059;-56
2021/11/05 01:46:42;;;;;;;22.77;12.93;;;;;;;18.21;67.89;101905.22;1688722;82;21051;-57
2021/11/05 01:49:11;;;;;;;15.90;10.97;;;;;;;18.21;67.81;101902.59;1701322;82;21030;-56
2021/11/05 01:51:37;;;;;;;21.12;12.53;;;;;;;18.20;67.84;101892.95;1700019;82;21031;-61
2021/11/05 01:54:08;;;;;;;19.80;11.12;;;;;;;18.19;67.84;101901.78;1699210;82;21071;-56
2021/11/05 01:56:36;;;;;;;15.55;10.58;;;;;;;18.19;67.89;101899.15;1703904;82;21042;-59
2021/11/05 01:59:03;;;;;;;18.15;10.98;;;;;;;18.21;67.87;101903.91;1696721;84;21038;-55
2021/11/05 02:01:30;;;;;;;21.25;11.43;;;;;;;18.20;67.94;101894.27;1702405;82;21074;-62
2021/11/05 02:03:57;;;;;;;18.55;10.82;;;;;;;18.20;67.94;101900.85;1700529;82;21027;-57
2021/11/05 02:06:23;;;;;;;23.12;11.55;;;;;;;18.19;67.94;101895.20;1698009;82;21081;-60
2021/11/05 02:08:52;;;;;;;19.95;11.05;;;;;;;18.19;67.99;101893.88;1698142;82;21165;-59
2021/11/05 02:11:20;;;;;;;18.57;9.90;;;;;;;18.19;67.96;101901.78;1698029;82;21066;-55
2021/11/05 02:13:47;;;;;;;17.45;10.48;;;;;;;18.19;67.99;101903.09;1698531;82;21046;-60
2021/11/05 02:16:14;;;;;;;15.83;10.10;;;;;;;18.18;67.97;101910.58;1698519;82;20999;-60
2021/11/05 02:18:41;;;;;;;21.42;10.75;;;;;;;18.17;68.04;101911.52;1700093;82;21058;-59
2021/11/05 02:21:11;;;;;;;22.48;10.72;;;;;;;18.17;68.18;101908.88;1698686;83;21003;-58
2021/11/05 02:23:37;;;;;;;19.10;10.25;;;;;;;18.17;68.10;101915.47;1676217;82;20996;-58
2021/11/05 02:26:05;;;;;;;24.18;11.12;;;;;;;18.17;68.15;101912.83;1701485;84;21082;-56
2021/11/05 02:28:38;;;;;;;18.50;9.68;;;;;;;18.18;68.09;101919.80;1700989;82;21067;-58
2021/11/05 02:31:05;;;;;;;16.15;9.30;;;;;;;18.18;68.06;101915.85;1638765;86;21119;-56
2021/11/05 02:33:32;;;;;;;22.65;10.08;;;;;;;18.17;68.01;101915.47;1637011;86;20992;-56
2021/11/05 02:35:59;;;;;;;16.62;9.78;;;;;;;18.16;68.10;101915.05;1636141;86;21090;-63
2021/11/05 02:38:25;;;;;;;17.27;10.13;;;;;;;18.16;68.17;101917.68;1635892;86;21047;-64
2021/11/05 02:40:52;;;;;;;16.40;10.03;;;;;;;18.16;68.15;101920.31;1635960;86;21056;-57
2021/11/05 02:43:19;;;;;;;18.50;10.58;;;;;;;18.14;68.20;101919.06;1631952;87;21043;-57
2021/11/05 02:45:53;;;;;;;21.80;10.43;;;;;;;18.14;68.24;101916.88;1638772;86;21008;-56
2021/11/05 02:48:20;;;;;;;16.57;9.88;;;;;;;18.15;68.24;101918.61;1638926;86;21520;-58
2021/11/05 02:50:46;;;;;;;15.58;10.00;;;;;;;18.15;68.14;101918.61;1636233;86;21535;-57
2021/11/05 02:53:13;;;;;;;15.68;9.53;;;;;;;18.15;68.23;101923.88;1636066;86;20997;-60
2021/11/05 02:55:39;;;;;;;17.73;9.98;;;;;;;18.14;68.27;101916.88;1635771;86;21047;-59
2021/11/05 02:58:06;;;;;;;20.32;9.78;;;;;;;18.15;68.25;101923.88;1635824;86;21059;-61
2021/11/05 03:00:33;;;;;;;18.55;9.98;;;;;;;18.14;68.26;101918.19;1636713;86;21011;-57
2021/11/05 03:03:00;;;;;;;18.77;9.58;;;;;;;18.14;68.24;101916.42;1638645;86;21072;-64
2021/11/05 03:05:27;;;;;;;15.65;9.65;;;;;;;18.14;68.26;101924.78;1638533;86;21000;-56
2021/11/05 03:07:54;;;;;;;16.40;9.18;;;;;;;18.14;68.22;101924.78;1636896;86;21090;-64
2021/11/05 03:10:22;;;;;;;15.90;10.00;;;;;;;18.15;68.31;101929.15;1646825;85;21042;-58
2021/11/05 03:12:48;;;;;;;16.55;10.28;;;;;;;18.15;68.22;101923.88;1652385;86;21041;-59
2021/11/05 03:15:15;;;;;;;19.02;11.03;;;;;;;18.17;68.15;101927.32;1667583;85;20984;-62
2021/11/05 03:17:41;;;;;;;25.08;10.55;;;;;;;18.18;68.08;101927.70;1653175;86;21085;-62
2021/11/05 03:20:09;;;;;;;17.00;10.10;;;;;;;18.18;68.02;101925.07;1665036;85;21046;-59
2021/11/05 03:22:37;;;;;;;19.95;9.20;;;;;;;18.17;68.08;101926.00;1650106;86;21077;-62
2021/11/05 03:25:06;;;;;;;18.42;9.40;;;;;;;18.19;68.01;101928.13;1683557;83;21050;-60
2021/11/05 03:27:33;;;;;;;15.20;9.55;;;;;;;18.19;68.01;101930.77;1711383;81;21026;-60
2021/11/05 03:30:01;;;;;;;17.35;9.98;;;;;;;18.20;67.99;101937.28;1746563;80;21094;-59
2021/11/05 03:32:28;;;;;;;16.45;9.20;;;;;;;18.21;67.98;101935.08;1748932;80;21538;-60
2021/11/05 03:34:55;;;;;;;16.85;9.80;;;;;;;18.20;67.98;101929.83;1749691;80;21502;-55
2021/11/05 03:37:21;;;;;;;16.32;9.03;;;;;;;18.20;67.94;101923.25;1713275;83;21037;-61
2021/11/05 03:39:48;;;;;;;17.70;9.60;;;;;;;18.20;67.96;101924.56;1710433;83;21041;-56
2021/11/05 03:42:14;;;;;;;18.40;9.33;;;;;;;18.19;67.96;101917.59;1701403;83;21004;-62
2021/11/05 03:44:41;;;;;;;15.83;10.10;;;;;;;18.19;67.93;101919.77;1714297;83;21022;-56
2021/11/05 03:47:07;;;;;;;18.07;10.82;;;;;;;18.19;67.83;101923.73;1696101;83;21078;-55
2021/11/05 03:49:34;;;;;;;19.75;10.48;;;;;;;18.19;67.95;101922.86;1699977;83;21102;-56
2021/11/05 03:52:03;;;;;;;16.23;9.90;;;;;;;18.19;67.94;101931.63;1694547;83;21083;-57
2021/11/05 03:54:31;;;;;;;17.15;9.98;;;;;;;18.20;67.93;101928.52;1694156;84;21047;-63
2021/11/05 03:56:57;;;;;;;18.62;11.05;;;;;;;18.20;67.95;101927.20;1697668;83;21003;-55
2021/11/05 03:59:24;;;;;;;20.27;10.30;;;;;;;18.20;67.88;101930.70;1696373;83;21491;-60
2021/11/05 04:01:51;;;;;;;17.48;10.60;;;;;;;18.21;67.84;101932.88;1693580;83;21551;-57
2021/11/05 04:04:17;;;;;;;12.70;8.08;;;;;;;18.20;67.85;101927.20;1693415;83;21478;-58
2021/11/05 04:06:46;;;;;;;18.92;9.05;;;;;;;18.20;67.95;101927.20;1693148;83;21008;-56
2021/11/05 04:09:13;;;;;;;18.00;9.40;;;;;;;18.18;68.01;101922.44;1692585;83;21165;-56
2021/11/05 04:11:39;;;;;;;18.25;9.33;;;;;;;18.20;67.95;101925.43;1685446;83;21098;-56
2021/11/05 04:14:07;;;;;;;16.90;9.35;;;;;;;18.21;67.89;101928.94;1687747;83;21079;-57
2021/11/05 04:16:33;;;;;;;12.88;9.13;;;;;;;18.21;67.85;101922.34;1700183;82;21048;-58
2021/11/05 04:19:00;;;;;;;16.48;8.88;;;;;;;18.21;67.84;101922.34;1704978;82;21083;-62
2021/11/05 04:21:27;;;;;;;18.12;9.00;;;;;;;18.21;67.84;101928.94;1704402;82;21082;-57
2021/11/05 04:23:53;;;;;;;22.20;9.70;;;;;;;18.43;67.12;101921.98;1705614;83;21049;-61
2021/11/05 04:26:20;;;;;;;16.73;9.53;;;;;;;18.48;66.84;101922.73;1706592;82;21042;-57
2021/11/05 04:28:46;;;;;;;18.23;10.78;;;;;;;18.49;66.73;101917.84;1706849;82;21011;-56
2021/11/05 04:31:13;;;;;;;15.43;9.13;;;;;;;18.49;66.73;101915.21;1704803;82;21479;-56
2021/11/05 04:33:41;;;;;;;16.73;10.25;;;;;;;18.50;66.66;101907.72;1703716;82;21506;-58
2021/11/05 04:36:08;;;;;;;17.62;10.05;;;;;;;18.50;66.67;101903.77;1703548;82;20966;-57
2021/11/05 04:38:35;;;;;;;24.47;10.82;;;;;;;18.50;66.64;101909.91;1696481;83;21016;-63
2021/11/05 04:41:02;;;;;;;15.90;9.80;;;;;;;18.51;66.64;101905.02;1706355;82;21023;-61
2021/11/05 04:43:28;;;;;;;17.98;9.65;;;;;;;18.52;66.60;101908.53;1704504;82;21050;-56
2021/11/05 04:45:55;;;;;;;16.73;9.20;;;;;;;18.52;66.57;101909.84;1703331;81;21010;-55
2021/11/05 04:48:22;;;;;;;13.72;9.58;;;;;;;18.52;66.51;101908.53;1703588;82;20966;-60
2021/11/05 04:50:48;;;;;;;22.45;11.05;;;;;;;18.51;66.55;101912.93;1703454;82;21002;-58
2021/11/05 04:53:15;;;;;;;21.45;10.40;;;;;;;18.52;66.57;101916.44;1704000;82;21022;-59
2021/11/05 04:55:41;;;;;;;23.30;10.55;;;;;;;18.51;66.53;101913.38;1706661;82;21014;-60
2021/11/05 04:58:08;;;;;;;15.98;9.43;;;;;;;18.51;66.55;101920.84;1706518;82;21066;-62
2021/11/05 05:00:35;;;;;;;17.10;9.58;;;;;;;18.52;66.53;101923.02;1704694;82;21022;-56
2021/11/05 05:03:01;;;;;;;21.25;9.58;;;;;;;18.51;66.54;101927.42;1705650;82;21007;-63
2021/11/05 05:05:28;;;;;;;15.93;9.40;;;;;;;18.52;66.62;101938.84;1705435;83;20990;-60
2021/11/05 05:07:55;;;;;;;19.57;9.85;;;;;;;18.54;66.56;101943.59;1706682;82;21581;-59
2021/11/05 05:10:21;;;;;;;19.65;10.48;;;;;;;18.54;66.47;101954.14;1710737;82;21581;-60
2021/11/05 05:12:47;;;;;;;18.92;10.38;;;;;;;18.54;66.50;101955.01;1712126;82;21543;-60
2021/11/05 05:15:15;;;;;;;24.72;11.38;;;;;;;18.53;66.55;101955.91;1711653;82;21058;-60
2021/11/05 05:17:42;;;;;;;18.95;10.95;;;;;;;18.54;66.55;101952.83;1711594;82;20998;-60
2021/11/05 05:20:12;;;;;;;18.23;10.20;;;;;;;18.55;66.60;101957.16;1711399;82;21110;-59
2021/11/05 05:22:39;;;;;;;19.25;10.88;;;;;;;18.55;66.55;101966.39;1707265;82;21082;-59
2021/11/05 05:25:07;;;;;;;19.73;10.55;;;;;;;18.55;66.51;101962.44;1715208;83;21017;-59
2021/11/05 05:27:34;;;;;;;16.70;9.90;;;;;;;18.56;66.55;101969.00;1714329;82;21026;-57
2021/11/05 05:30:01;;;;;;;16.55;10.35;;;;;;;18.57;66.55;101966.75;1713893;82;21010;-56
2021/11/05 05:32:28;;;;;;;19.55;10.32;;;;;;;18.58;66.60;101970.25;1711511;82;21021;-59
2021/11/05 05:34:54;;;;;;;16.30;10.72;;;;;;;18.58;66.58;101971.56;1711714;81;21034;-55
2021/11/05 05:37:20;;;;;;;15.00;9.95;;;;;;;18.60;66.67;101972.37;1707610;82;21009;-59
2021/11/05 05:39:47;;;;;;;20.48;11.00;;;;;;;18.62;66.60;101971.86;1712217;82;21104;-56
2021/11/05 05:42:13;;;;;;;15.80;10.65;;;;;;;18.65;66.57;101977.00;1713332;82;21093;-54
2021/11/05 05:44:40;;;;;;;17.48;9.53;;;;;;;18.67;66.47;101972.09;1705893;83;21046;-54
2021/11/05 05:47:07;;;;;;;14.65;9.90;;;;;;;18.70;66.49;101979.03;1714010;83;21093;-55
2021/11/05 05:49:35;;;;;;;16.48;9.83;;;;;;;18.74;66.69;101974.05;1708266;83;21526;-58
2021/11/05 05:52:01;;;;;;;16.05;10.40;;;;;;;18.84;66.69;101973.25;1707065;83;20990;-59
2021/11/05 05:54:28;;;;;;;17.60;10.13;;;;;;;18.93;66.53;101976.43;1706019;83;21054;-55
2021/11/05 05:56:57;;;;;;;12.80;9.88;;;;;;;19.03;66.14;101977.80;1707020;83;21109;-59
2021/11/05 05:59:25;;;;;;;16.77;9.70;;;;;;;19.09;65.70;101981.53;1704074;83;21039;-56
2021/11/05 06:01:51;;;;;;;23.30;11.03;;;;;;;19.14;65.40;101974.31;1710179;83;20991;-60
2021/11/05 06:04:19;;;;;;;17.12;10.05;;;;;;;19.17;65.24;101971.55;1706893;83;21128;-54
2021/11/05 06:06:46;;;;;;;17.10;9.58;;;;;;;19.20;65.13;101972.77;1701116;83;21583;-57
2021/11/05 06:09:12;;;;;;;15.75;9.08;;;;;;;19.24;65.12;101966.90;1710851;83;21033;-57
2021/11/05 06:11:40;;;;;;;15.75;9.45;;;;;;;19.28;64.96;101956.17;1701363;83;21113;-54
2021/11/05 06:14:08;;;;;;;15.30;9.23;;;;;;;19.33;64.86;101955.55;1700790;84;20983;-55
2021/11/05 06:16:34;;;;;;;16.27;10.20;;;;;;;19.38;64.60;101945.69;1701173;84;21029;-54
2021/11/05 06:19:01;;;;;;;14.50;9.03;;;;;;;19.43;64.50;101949.47;1698423;84;21069;-55
2021/11/05 06:21:27;;;;;;;16.17;8.75;;;;;;;19.51;64.39;101953.12;1699749;84;21034;-56
2021/11/05 06:23:54;;;;;;;14.98;9.38;;;;;;;19.57;64.12;101952.88;1700382;84;21018;-53
2021/11/05 06:26:20;;;;;;;19.52;9.93;;;;;;;19.63;63.87;101943.38;1696520;84;21054;-58
2021/11/05 06:28:47;;;;;;;16.80;9.90;;;;;;;19.65;63.64;101940.22;1692898;84;21546;-53
2021/11/05 06:31:14;;;;;;;17.20;9.55;;;;;;;19.68;63.48;101941.43;1701142;84;21531;-54
2021/11/05 06:33:42;;;;;;;18.70;9.58;;;;;;;19.67;63.35;101949.80;1696792;84;21058;-54
2021/11/05 06:36:08;;;;;;;13.65;9.38;;;;;;;19.64;63.30;101951.72;1698594;84;21509;-59
2021/11/05 06:38:35;;;;;;;19.73;9.15;;;;;;;19.60;63.37;101951.45;1698446;84;21038;-52
2021/11/05 06:41:03;;;;;;;21.62;9.58;;;;;;;19.58;63.46;101961.21;1697840;84;21073;-57
2021/11/05 06:43:29;;;;;;;15.40;9.35;;;;;;;19.56;63.50;101968.33;1698296;84;21534;-54
2021/11/05 06:45:56;;;;;;;18.20;9.23;;;;;;;19.54;63.59;101964.89;1696321;84;21538;-53
2021/11/05 06:48:23;;;;;;;20.32;10.23;;;;;;;19.51;63.56;101977.75;1699822;84;21518;-55
2021/11/05 06:50:49;;;;;;;17.77;10.05;;;;;;;19.49;63.58;101976.95;1735530;82;21467;-53
2021/11/05 06:53:16;;;;;;;17.55;9.65;;;;;;;19.47;63.66;101984.91;1723732;81;21484;-53
2021/11/05 06:55:43;;;;;;;15.98;9.98;;;;;;;19.45;63.69;101978.83;1736776;81;20995;-56
2021/11/05 06:58:10;;;;;;;16.60;9.60;;;;;;;19.45;63.77;101985.42;1736738;81;21029;-53
2021/11/05 07:00:37;;;;;;;23.42;10.28;;;;;;;19.45;63.82;101982.78;1734496;81;21085;-53
2021/11/05 07:03:05;;;;;;;17.20;9.85;;;;;;;19.46;63.79;101983.20;1735442;81;21003;-53
2021/11/05 07:05:32;;;;;;;15.48;9.23;;;;;;;19.47;63.88;101996.78;1700418;84;21474;-56
2021/11/05 07:07:59;;;;;;;25.57;9.95;;;;;;;19.48;63.80;101996.33;1701318;84;21006;-59
2021/11/05 07:10:27;;;;;;;23.98;11.48;;;;;;;19.49;63.89;102009.46;1702778;83;21558;-54
2021/11/05 07:12:54;;;;;;;21.68;10.70;;;;;;;19.52;63.95;102006.30;1742256;81;21022;-58
2021/11/05 07:15:20;;;;;;;26.10;11.55;;;;;;;19.55;63.95;102003.55;1741443;81;21050;-52
2021/11/05 07:17:47;;;;;;;18.55;10.30;;;;;;;19.58;63.90;102007.41;1741631;81;21047;-54
2021/11/05 07:20:14;;;;;;;21.82;11.28;;;;;;;19.62;63.80;102011.17;1741450;81;20994;-52
2021/11/05 07:22:43;;;;;;;18.48;10.30;;;;;;;19.64;63.74;102011.13;1741483;81;20986;-58
2021/11/05 07:25:11;;;;;;;17.40;10.00;;;;;;;19.67;63.63;102009.67;1743906;81;21022;-55
2021/11/05 07:27:39;;;;;;;18.82;9.80;;;;;;;19.68;63.44;102014.05;1744803;81;20970;-55
2021/11/05 07:30:08;;;;;;;15.65;9.63;;;;;;;19.68;63.42;102011.41;1708166;83;21014;-56
2021/11/05 07:32:38;;;;;;;19.10;10.32;;;;;;;19.71;63.39;102013.91;1748233;81;20998;-52
2021/11/05 07:35:06;;;;;;;19.67;10.08;;;;;;;19.72;63.38;102019.61;1742725;81;21054;-58
2021/11/05 07:37:34;;;;;;;16.02;9.68;;;;;;;19.74;63.37;102020.41;1743406;82;21526;-51
2021/11/05 07:40:00;;;;;;;18.15;9.60;;;;;;;19.76;63.20;102014.60;1744688;81;21490;-57
2021/11/05 07:42:28;;;;;;;20.52;10.18;;;;;;;19.77;63.28;102018.95;1708842;83;21438;-52
2021/11/05 07:44:55;;;;;;;21.37;11.10;;;;;;;19.79;63.25;102014.47;1742728;81;20987;-52
2021/11/05 07:47:22;;;;;;;16.87;10.18;;;;;;;19.81;63.21;102017.91;1742034;81;21038;-58
2021/11/05 07:49:50;;;;;;;13.68;8.80;;;;;;;19.83;63.12;102016.06;1741488;81;21019;-52
2021/11/05 07:52:18;;;;;;;18.17;9.85;;;;;;;19.85;62.94;102030.94;1741358;81;21105;-51
2021/11/05 07:54:48;;;;;;;18.30;10.53;;;;;;;19.88;62.83;102024.67;1741652;81;20994;-55
2021/11/05 07:57:14;;;;;;;14.73;8.70;;;;;;;19.92;62.90;102015.70;1742752;81;20994;-52
2021/11/05 07:59:41;;;;;;;19.05;9.78;;;;;;;19.94;62.79;102017.37;1740422;82;21034;-54
2021/11/05 08:02:07;;;;;;;17.50;9.93;;;;;;;19.96;62.72;102022.58;1740600;81;21046;-54
2021/11/05 08:04:35;;;;;;;15.55;9.80;;;;;;;19.98;62.56;102021.61;1741727;81;21030;-57
2021/11/05 08:07:03;;;;;;;15.65;9.73;;;;;;;20.01;62.42;102020.63;1705257;83;21069;-51
2021/11/05 08:09:29;;;;;;;18.05;9.35;;;;;;;20.03;62.31;102024.06;1704259;83;21013;-61
2021/11/05 08:11:58;;;;;;;19.30;9.88;;;;;;;20.03;62.38;102021.42;1702841;83;21085;-54
2021/11/05 08:14:25;;;;;;;16.73;9.35;;;;;;;20.06;62.38;102023.92;1695467;84;21045;-53
2021/11/05 08:16:51;;;;;;;14.55;9.68;;;;;;;20.08;62.27;102031.33;1700174;84;20978;-57
2021/11/05 08:19:18;;;;;;;15.55;9.93;;;;;;;20.11;62.25;102030.73;1698201;84;21113;-52
2021/11/05 08:21:44;;;;;;;19.27;9.58;;;;;;;20.14;62.25;102024.47;1698298;84;20998;-55
2021/11/05 08:24:11;;;;;;;19.12;9.73;;;;;;;20.18;62.06;102023.41;1698249;84;21539;-52
2021/11/05 08:26:37;;;;;;;19.92;9.78;;;;;;;20.21;61.82;102023.34;1698302;84;21026;-52
2021/11/05 08:29:06;;;;;;;17.70;9.58;;;;;;;20.22;61.83;102019.30;1695989;84;21034;-54
2021/11/05 08:31:33;;;;;;;18.12;9.23;;;;;;;20.24;61.75;102016.58;1698833;84;21010;-51
2021/11/05 08:34:00;;;;;;;20.75;11.08;;;;;;;20.28;61.59;102018.66;1698023;84;21030;-53
2021/11/05 08:36:27;;;;;;;19.10;9.48;;;;;;;20.29;61.53;102021.23;1733431;81;21023;-56
2021/11/05 08:38:54;;;;;;;15.38;8.98;;;;;;;20.29;61.30;102013.30;1733488;81;21054;-55
2021/11/05 08:41:20;;;;;;;13.55;8.95;;;;;;;20.26;61.15;102014.28;1733442;81;21038;-56
2021/11/05 08:43:51;;;;;;;21.85;10.03;;;;;;;20.23;61.12;102009.14;1731929;81;21456;-51
2021/11/05 08:46:20;;;;;;;14.23;9.00;;;;;;;20.20;61.30;102010.58;1737352;82;21526;-53
2021/11/05 08:48:56;;;;;;;14.70;9.68;;;;;;;20.19;61.39;102007.97;1736730;81;21172;-51
2021/11/05 08:51:23;;;;;;;17.45;9.78;;;;;;;20.18;61.56;102010.20;1736709;81;21007;-51
2021/11/05 08:53:49;;;;;;;15.30;10.18;;;;;;;20.17;61.55;102003.22;1735403;81;21039;-55
2021/11/05 08:56:16;;;;;;;16.85;10.80;;;;;;;20.17;61.53;102000.08;1733575;81;20988;-52
2021/11/05 08:58:43;;;;;;;18.42;10.82;;;;;;;20.18;61.47;101998.31;1722782;82;20987;-56
2021/11/05 09:01:10;;;;;;;15.80;10.45;;;;;;;20.19;61.54;101994.75;1736467;81;21098;-51
2021/11/05 09:03:37;;;;;;;15.28;10.80;;;;;;;20.20;61.61;101997.81;1736584;81;20979;-52
2021/11/05 09:06:05;;;;;;;23.52;11.30;;;;;;;20.20;61.56;101996.04;1734473;81;21031;-57
2021/11/05 09:08:32;;;;;;;16.85;9.88;;;;;;;20.22;61.58;101990.68;1733480;81;21480;-53
2021/11/05 09:11:00;;;;;;;17.05;10.68;;;;;;;20.24;61.61;101996.76;1736631;81;21609;-54
2021/11/05 09:13:29;;;;;;;18.20;10.00;;;;;;;20.27;61.55;101994.00;1745466;80;21570;-54
2021/11/05 09:15:55;;;;;;;21.07;10.35;;;;;;;20.31;61.42;101998.23;1743522;80;21037;-58
2021/11/05 09:18:23;;;;;;;17.07;9.93;;;;;;;20.33;61.29;102006.95;1747730;80;21062;-55
2021/11/05 09:20:49;;;;;;;17.90;11.00;;;;;;;20.36;61.24;102001.52;1713055;83;21009;-51
2021/11/05 09:23:16;;;;;;;15.08;9.70;;;;;;;20.38;61.24;102010.25;1696008;83;21063;-55
2021/11/05 09:25:43;;;;;;;16.17;10.80;;;;;;;20.42;61.14;102010.55;1696016;83;21039;-51
2021/11/05 09:28:10;;;;;;;18.92;10.28;;;;;;;20.45;61.13;102009.08;1683839;83;21534;-51
2021/11/05 09:30:37;;;;;;;19.80;10.45;;;;;;;20.51;60.97;102010.13;1696220;83;21023;-55
2021/11/05 09:33:03;;;;;;;19.12;9.98;;;;;;;20.56;60.76;102010.81;1695151;83;21082;-54
2021/11/05 09:35:30;;;;;;;15.08;9.93;;;;;;;20.60;60.53;102011.53;1694085;83;21515;-51
2021/11/05 09:37:56;;;;;;;17.45;9.70;;;;;;;20.63;60.44;102008.28;1695144;84;21071;-52
2021/11/05 09:40:25;;;;;;;17.92;10.53;;;;;;;20.66;60.36;102004.19;1695960;83;21031;-52
2021/11/05 09:42:53;;;;;;;18.90;11.40;;;;;;;20.70;60.21;102007.09;1696243;83;21063;-50
2021/11/05 09:45:21;;;;;;;16.73;10.15;;;;;;;20.71;60.06;102008.80;1694750;83;21023;-54
2021/11/05 09:47:48;;;;;;;13.78;9.08;;;;;;;20.73;60.00;102003.47;1690578;83;21571;-54
2021/11/05 09:50:20;;;;;;;14.33;9.83;;;;;;;20.73;59.89;102006.94;1693012;83;21119;-51
2021/11/05 09:52:47;;;;;;;16.55;9.35;;;;;;;20.73;59.84;101999.01;1693441;83;21074;-51
2021/11/05 09:55:16;;;;;;;18.52;10.25;;;;;;;20.73;59.83;102000.33;1693366;83;21062;-55
2021/11/05 09:57:42;;;;;;;15.60;9.33;;;;;;;20.73;59.85;102004.30;1696137;83;21050;-51
2021/11/05 10:00:11;;;;;;;16.00;9.20;;;;;;;20.76;59.74;102010.80;1696187;83;20995;-57
2021/11/05 10:02:42;;;;;;;14.15;9.28;;;;;;;20.79;59.69;102010.64;1695737;83;21043;-50
2021/11/05 10:05:11;;;;;;;17.55;9.63;;;;;;;20.81;59.72;102010.11;1693760;83;21090;-51
2021/11/05 10:07:55;;;;;;;21.00;10.80;;;;;;;20.86;59.71;102017.84;1694729;83;21093;-55
2021/11/05 10:10:29;;;;;;;19.50;10.25;;;;;;;20.88;59.52;102015.54;1691833;83;21050;-51
2021/11/05 10:13:06;;;;;;;18.27;9.25;;;;;;;20.91;59.35;102014.09;1696272;83;21574;-55
2021/11/05 10:15:37;;;;;;;17.98;9.60;;;;;;;20.92;59.21;102017.12;1579528;90;21586;-56
2021/11/05 10:18:12;;;;;;;22.00;10.53;;;;;;;20.91;59.04;102016.73;1559955;91;21157;-54
2021/11/05 10:20:39;;;;;;;24.55;9.58;;;;;;;20.89;59.01;102023.89;1590590;89;21109;-53
2021/11/05 10:23:06;;;;;;;18.85;10.25;;;;;;;20.86;59.34;102030.63;1579745;89;21065;-54
2021/11/05 10:25:40;;;;;;;14.45;8.35;;;;;;;20.85;59.32;102032.89;1555768;91;21141;-52
2021/11/05 10:28:25;;;;;;;17.10;9.00;;;;;;;20.87;59.16;102027.52;1587149;90;21046;-54
2021/11/05 10:30:59;;;;;;;17.12;9.45;;;;;;;20.85;59.00;102031.56;1589421;90;21563;-53
2021/11/05 10:33:31;;;;;;;18.30;10.30;;;;;;;20.84;59.01;102019.70;1586994;90;21073;-52
2021/11/05 10:36:04;;;;;;;17.98;9.05;;;;;;;20.81;58.93;102011.43;1566313;91;21065;-55
2021/11/05 10:38:33;;;;;;;21.00;9.13;;;;;;;20.79;59.05;102001.38;1566143;91;21045;-54
2021/11/05 10:41:01;;;;;;;22.80;9.75;;;;;;;20.74;59.11;102000.74;1565607;91;21098;-56
2021/11/05 10:43:41;;;;;;;21.55;9.88;;;;;;;20.71;59.19;102000.03;1557965;91;21617;-51
2021/11/05 10:46:31;;;;;;;18.52;8.80;;;;;;;20.67;59.31;101996.63;1558674;91;21034;-52
2021/11/05 10:49:05;;;;;;;18.25;10.58;;;;;;;20.64;59.38;101988.85;1562010;91;21483;-52
2021/11/05 10:51:34;;;;;;;17.35;8.38;;;;;;;20.61;59.47;101981.03;1569479;91;21113;-55
2021/11/05 10:54:01;;;;;;;20.12;9.03;;;;;;;20.61;59.51;101978.39;1568559;91;21040;-55
2021/11/05 10:56:30;;;;;;;18.32;8.60;;;;;;;20.58;59.60;101971.06;1568345;91;21098;-55
2021/11/05 10:59:00;;;;;;;15.72;8.68;;;;;;;20.55;59.62;101969.41;1568602;91;21648;-52
2021/11/05 11:01:34;;;;;;;14.10;8.55;;;;;;;20.52;59.69;101957.66;1518814;94;21035;-56
2021/11/05 11:04:04;;;;;;;18.55;8.95;;;;;;;20.52;59.80;101960.30;1519365;94;21088;-53
2021/11/05 11:06:43;;;;;;;15.98;9.38;;;;;;;20.52;60.09;101953.70;1538923;92;21050;-51
2021/11/05 11:09:16;;;;;;;16.87;7.85;;;;;;;20.55;60.15;101949.58;1550489;91;21075;-51
2021/11/05 11:11:47;;;;;;;21.62;8.70;;;;;;;20.60;59.94;101952.89;1545823;91;21661;-53
2021/11/05 11:14:20;;;;;;;13.88;8.18;;;;;;;20.65;59.78;101954.02;1536840;91;21132;-56
2021/11/05 11:19:33;;;;;;;19.12;8.65;;;;;;;20.73;59.56;101954.05;1551257;92;21104;-56